createdAt,value
2023-04-29T00:00:16.386Z,18.90
2023-04-29T00:02:50.318Z,18.80
2023-04-29T00:05:18.189Z,21.60
2023-04-29T00:07:51.011Z,20.92
2023-04-29T00:10:17.811Z,21.23
2023-04-29T00:12:46.904Z,21.25
2023-04-29T00:15:13.542Z,22.23
2023-04-29T00:17:42.541Z,21.90
2023-04-29T00:20:10.321Z,22.40
2023-04-29T00:22:39.694Z,23.45
2023-04-29T00:25:11.299Z,23.58
2023-04-29T00:27:40.746Z,23.35
2023-04-29T00:30:08.463Z,24.75
2023-04-29T00:32:37.674Z,27.05
2023-04-29T00:35:04.575Z,23.88
2023-04-29T00:37:31.242Z,26.55
2023-04-29T00:40:02.584Z,26.73
2023-04-29T00:42:30.665Z,27.83
2023-04-29T00:45:00.287Z,29.45
2023-04-29T00:47:29.248Z,28.55
2023-04-29T00:49:55.948Z,27.83
2023-04-29T00:52:23.264Z,30.35
2023-04-29T00:54:55.496Z,28.98
2023-04-29T00:57:22.695Z,28.85
2023-04-29T00:59:50.048Z,28.77
2023-04-29T01:02:19.730Z,30.08
2023-04-29T01:04:46.982Z,29.15
2023-04-29T01:07:24.222Z,30.92
2023-04-29T01:10:06.846Z,34.33
2023-04-29T01:15:25.314Z,31.25
2023-04-29T01:17:58.528Z,33.67
2023-04-29T01:20:26.474Z,33.63
2023-04-29T01:22:55.784Z,34.13
2023-04-29T01:25:24.734Z,34.65
2023-04-29T01:28:56.620Z,31.45
2023-04-29T01:31:58.680Z,33.63
2023-04-29T01:35:07.695Z,34.45
2023-04-29T01:37:47.316Z,31.60
2023-04-29T01:40:28.137Z,32.60
2023-04-29T01:43:05.592Z,31.50
2023-04-29T01:45:35.166Z,33.40
2023-04-29T01:48:04.599Z,31.83
2023-04-29T01:50:32.544Z,34.13
2023-04-29T01:53:07.927Z,33.88
2023-04-29T01:55:39.490Z,32.80
2023-04-29T01:58:18.854Z,31.15
2023-04-29T02:01:17.309Z,31.85
2023-04-29T02:03:46.603Z,31.45
2023-04-29T02:06:15.251Z,29.52
2023-04-29T02:08:42.101Z,28.95
2023-04-29T02:11:20.791Z,31.00
2023-04-29T02:13:47.526Z,29.27
2023-04-29T02:16:18.420Z,29.05
2023-04-29T02:18:58.759Z,29.27
2023-04-29T02:21:35.245Z,28.05
2023-04-29T02:24:06.715Z,28.08
2023-04-29T02:26:34.367Z,27.17
2023-04-29T02:29:06.242Z,28.33
2023-04-29T02:31:33.151Z,27.52
2023-04-29T02:34:00.417Z,25.70
2023-04-29T02:36:35.543Z,24.35
2023-04-29T02:39:04.477Z,25.80
2023-04-29T02:41:33.791Z,25.85
2023-04-29T02:44:05.008Z,27.08
2023-04-29T02:46:36.338Z,26.75
2023-04-29T02:49:05.757Z,25.00
2023-04-29T02:51:32.349Z,23.50
2023-04-29T02:53:59.075Z,21.95
2023-04-29T02:56:32.157Z,20.45
2023-04-29T02:59:04.021Z,19.65
2023-04-29T03:01:33.761Z,20.15
2023-04-29T03:04:00.554Z,18.50
2023-04-29T03:06:27.701Z,19.35
2023-04-29T03:08:59.118Z,20.52
2023-04-29T03:11:28.863Z,19.17
2023-04-29T03:13:57.813Z,20.13
2023-04-29T03:16:25.261Z,18.92
2023-04-29T03:18:54.384Z,20.48
2023-04-29T03:21:20.923Z,18.65
2023-04-29T03:23:51.726Z,20.20
2023-04-29T03:26:27.231Z,19.38
2023-04-29T03:28:56.423Z,19.00
2023-04-29T03:31:28.400Z,19.58
2023-04-29T03:33:57.971Z,21.05
2023-04-29T03:36:24.725Z,20.60
2023-04-29T03:39:10.250Z,19.27
2023-04-29T03:41:36.836Z,20.60
2023-04-29T03:44:03.974Z,21.70
2023-04-29T03:46:30.713Z,20.08
2023-04-29T03:49:04.028Z,20.75
2023-04-29T03:51:37.075Z,21.38
2023-04-29T03:54:16.310Z,21.75
2023-04-29T03:56:46.981Z,21.63
2023-04-29T03:59:16.244Z,19.80
2023-04-29T04:01:43.034Z,20.80
2023-04-29T04:04:11.955Z,22.35
2023-04-29T04:06:47.068Z,21.38
2023-04-29T04:09:13.685Z,21.13
2023-04-29T04:11:45.615Z,23.80
2023-04-29T04:16:39.499Z,18.75
2023-04-29T04:19:06.317Z,22.15
2023-04-29T04:21:36.784Z,21.67
2023-04-29T04:24:09.347Z,21.48
2023-04-29T04:26:36.069Z,20.15
2023-04-29T04:29:08.172Z,20.70
2023-04-29T04:31:50.074Z,21.75
2023-04-29T04:34:24.558Z,20.38
2023-04-29T04:36:52.541Z,18.80
2023-04-29T04:39:22.100Z,18.88
2023-04-29T04:41:51.225Z,18.80
2023-04-29T04:44:24.306Z,19.92
2023-04-29T04:46:58.323Z,17.15
2023-04-29T04:49:49.628Z,18.88
2023-04-29T04:52:20.621Z,17.92
2023-04-29T04:54:50.170Z,18.38
2023-04-29T04:57:30.861Z,17.88
2023-04-29T05:00:05.557Z,17.10
2023-04-29T05:02:35.148Z,18.13
2023-04-29T05:05:03.967Z,16.60
2023-04-29T05:07:37.202Z,17.30
2023-04-29T05:10:06.581Z,16.77
2023-04-29T05:12:36.434Z,16.20
2023-04-29T05:15:04.378Z,16.50
2023-04-29T05:17:32.171Z,17.17
2023-04-29T05:19:59.184Z,16.58
2023-04-29T05:22:26.010Z,17.33
2023-04-29T05:24:54.067Z,15.57
2023-04-29T05:27:21.550Z,17.35
2023-04-29T05:29:48.254Z,16.88
2023-04-29T05:32:15.273Z,16.10
2023-04-29T05:34:45.377Z,17.48
2023-04-29T05:37:12.016Z,15.48
2023-04-29T05:39:56.074Z,14.20
2023-04-29T05:42:24.831Z,15.00
2023-04-29T05:44:51.790Z,15.43
2023-04-29T05:47:20.629Z,14.35
2023-04-29T05:49:48.015Z,13.93
2023-04-29T05:52:14.690Z,14.68
2023-04-29T05:54:48.058Z,15.80
2023-04-29T05:57:17.127Z,14.38
2023-04-29T05:59:44.378Z,12.93
2023-04-29T06:02:12.227Z,14.52
2023-04-29T06:04:43.472Z,14.60
2023-04-29T06:07:21.230Z,14.52
2023-04-29T06:09:51.239Z,12.20
2023-04-29T06:12:18.001Z,13.32
2023-04-29T06:14:46.622Z,12.02
2023-04-29T06:17:13.619Z,13.05
2023-04-29T06:19:40.725Z,11.95
2023-04-29T06:22:09.467Z,11.88
2023-04-29T06:24:38.214Z,12.18
2023-04-29T06:27:06.391Z,12.10
2023-04-29T06:29:33.073Z,12.20
2023-04-29T06:31:59.683Z,12.82
2023-04-29T06:34:26.661Z,12.55
2023-04-29T06:37:21.908Z,12.75
2023-04-29T06:40:08.015Z,13.02
2023-04-29T06:42:44.147Z,14.27
2023-04-29T06:45:33.978Z,13.50
2023-04-29T06:48:09.380Z,14.50
2023-04-29T06:50:58.394Z,14.18
2023-04-29T06:53:25.024Z,13.57
2023-04-29T06:55:51.771Z,13.73
2023-04-29T06:58:20.690Z,13.38
2023-04-29T07:00:48.728Z,12.70
2023-04-29T07:03:16.646Z,14.60
2023-04-29T07:05:45.389Z,14.30
2023-04-29T07:08:13.361Z,14.80
2023-04-29T07:10:41.244Z,14.77
2023-04-29T07:13:08.090Z,15.85
2023-04-29T07:15:35.724Z,15.80
2023-04-29T07:18:05.221Z,15.02
2023-04-29T07:20:32.230Z,14.50
2023-04-29T07:22:59.278Z,15.00
2023-04-29T07:25:27.672Z,15.57
2023-04-29T07:27:56.415Z,15.27
2023-04-29T07:30:25.110Z,14.85
2023-04-29T07:32:51.932Z,15.70
2023-04-29T07:35:22.298Z,15.10
2023-04-29T07:37:49.072Z,16.35
2023-04-29T07:40:15.826Z,14.00
2023-04-29T07:42:43.448Z,13.60
2023-04-29T07:45:12.739Z,15.48
2023-04-29T07:47:42.671Z,15.18
2023-04-29T07:50:09.730Z,15.10
2023-04-29T07:52:38.948Z,16.25
2023-04-29T07:55:05.992Z,17.10
2023-04-29T07:57:32.803Z,15.60
2023-04-29T07:59:59.634Z,15.65
2023-04-29T08:02:26.394Z,15.10
2023-04-29T08:04:56.106Z,15.68
2023-04-29T08:07:23.277Z,15.20
2023-04-29T08:09:51.271Z,15.48
2023-04-29T08:12:17.892Z,16.17
2023-04-29T08:14:44.465Z,14.70
2023-04-29T08:17:11.334Z,15.38
2023-04-29T08:19:38.013Z,16.83
2023-04-29T08:22:05.048Z,13.73
2023-04-29T08:24:33.531Z,13.35
2023-04-29T08:27:00.227Z,13.95
2023-04-29T08:29:26.888Z,14.07
2023-04-29T08:31:53.671Z,13.70
2023-04-29T08:34:20.338Z,13.68
2023-04-29T08:36:46.911Z,13.20
2023-04-29T08:39:15.638Z,13.35
2023-04-29T08:41:45.389Z,12.18
2023-04-29T08:44:11.933Z,12.93
2023-04-29T08:46:39.262Z,11.18
2023-04-29T08:49:06.822Z,12.10
2023-04-29T08:51:34.569Z,11.20
2023-04-29T08:54:01.221Z,10.18
2023-04-29T08:56:30.838Z,9.95
2023-04-29T08:58:58.945Z,10.55
2023-04-29T09:01:28.656Z,10.85
2023-04-29T09:04:21.360Z,10.80
2023-04-29T09:06:48.819Z,8.95
2023-04-29T09:09:15.939Z,8.82
2023-04-29T09:11:42.540Z,10.32
2023-04-29T09:14:09.397Z,10.98
2023-04-29T09:16:38.148Z,11.18
2023-04-29T09:19:07.184Z,10.68
2023-04-29T09:21:35.988Z,11.38
2023-04-29T09:24:03.751Z,12.10
2023-04-29T09:26:45.360Z,11.13
2023-04-29T09:29:18.200Z,12.20
2023-04-29T09:31:45.990Z,11.63
2023-04-29T09:34:14.112Z,13.40
2023-04-29T09:36:47.825Z,14.07
2023-04-29T09:39:19.220Z,14.85
2023-04-29T09:41:54.787Z,14.27
2023-04-29T09:44:23.247Z,14.73
2023-04-29T09:46:57.713Z,15.48
2023-04-29T09:49:29.333Z,14.05
2023-04-29T09:51:57.086Z,15.27
2023-04-29T09:54:28.384Z,15.80
2023-04-29T09:56:56.087Z,15.30
2023-04-29T09:59:23.607Z,15.18
2023-04-29T10:01:54.341Z,15.00
2023-04-29T10:04:23.341Z,15.05
2023-04-29T10:06:54.839Z,14.38
2023-04-29T10:09:23.329Z,15.90
2023-04-29T10:11:52.563Z,15.00
2023-04-29T10:14:21.643Z,15.13
2023-04-29T10:17:09.877Z,14.82
2023-04-29T10:19:47.338Z,14.55
2023-04-29T10:22:26.757Z,14.95
2023-04-29T10:24:55.448Z,15.20
2023-04-29T10:27:24.846Z,14.30
2023-04-29T10:29:54.456Z,16.13
2023-04-29T10:32:22.288Z,15.35
2023-04-29T10:34:54.601Z,14.85
2023-04-29T10:39:56.686Z,14.57
2023-04-29T10:42:59.406Z,15.90
2023-04-29T10:45:31.629Z,15.07
2023-04-29T10:48:10.390Z,14.90
2023-04-29T10:50:48.850Z,15.50
2023-04-29T10:53:17.016Z,14.48
2023-04-29T10:55:47.490Z,14.60
2023-04-29T10:58:37.125Z,14.68
2023-04-29T11:01:04.779Z,13.50
2023-04-29T11:03:48.759Z,14.48
2023-04-29T11:06:16.497Z,13.32
2023-04-29T11:08:43.356Z,13.75
2023-04-29T11:11:10.028Z,13.93
2023-04-29T11:13:40.532Z,14.55
2023-04-29T11:16:11.434Z,14.18
2023-04-29T11:19:10.357Z,13.43
2023-04-29T11:21:37.570Z,12.82
2023-04-29T11:24:06.370Z,13.50
2023-04-29T11:26:35.668Z,12.95
2023-04-29T11:29:02.462Z,13.23
2023-04-29T11:31:32.972Z,12.57
2023-04-29T11:34:00.483Z,12.57
2023-04-29T11:36:27.466Z,11.60
2023-04-29T11:38:54.153Z,13.00
2023-04-29T11:41:22.296Z,11.65
2023-04-29T11:43:56.945Z,11.30
2023-04-29T11:46:23.642Z,11.95
2023-04-29T11:48:50.641Z,12.48
2023-04-29T11:51:19.016Z,12.60
2023-04-29T11:53:45.769Z,11.38
2023-04-29T11:56:12.689Z,11.02
2023-04-29T11:58:43.306Z,11.80
2023-04-29T12:01:09.934Z,11.23
2023-04-29T12:03:36.858Z,12.15
2023-04-29T12:06:08.309Z,11.50
2023-04-29T12:08:35.060Z,12.68
2023-04-29T12:11:01.738Z,11.90
2023-04-29T12:13:30.416Z,12.10
2023-04-29T12:15:58.698Z,11.10
2023-04-29T12:18:27.995Z,10.68
2023-04-29T12:20:55.938Z,12.05
2023-04-29T12:23:27.236Z,11.63
2023-04-29T12:25:55.261Z,11.18
2023-04-29T12:28:22.521Z,10.93
2023-04-29T12:30:57.827Z,10.60
2023-04-29T12:33:29.263Z,10.50
2023-04-29T12:35:57.983Z,9.97
2023-04-29T12:38:30.033Z,10.80
2023-04-29T12:40:58.825Z,9.70
2023-04-29T12:43:33.530Z,8.90
2023-04-29T12:46:07.953Z,8.80
2023-04-29T12:48:39.218Z,8.25
2023-04-29T12:51:08.178Z,8.50
2023-04-29T12:53:34.805Z,8.18
2023-04-29T12:56:01.805Z,8.60
2023-04-29T12:58:32.836Z,8.77
2023-04-29T13:00:59.681Z,9.10
2023-04-29T13:03:26.798Z,8.30
2023-04-29T13:05:54.626Z,9.75
2023-04-29T13:08:21.336Z,8.02
2023-04-29T13:10:48.021Z,7.50
2023-04-29T13:13:14.618Z,6.75
2023-04-29T13:15:41.230Z,6.57
2023-04-29T13:18:08.058Z,7.80
2023-04-29T13:20:41.048Z,7.70
2023-04-29T13:23:09.493Z,8.18
2023-04-29T13:25:36.377Z,7.03
2023-04-29T13:28:05.065Z,7.80
2023-04-29T13:30:31.785Z,7.70
2023-04-29T13:33:04.387Z,7.65
2023-04-29T13:35:39.882Z,7.72
2023-04-29T13:38:06.745Z,7.65
2023-04-29T13:40:38.290Z,7.85
2023-04-29T13:43:09.597Z,8.75
2023-04-29T13:45:39.889Z,8.23
2023-04-29T13:48:26.149Z,7.38
2023-04-29T13:54:02.878Z,8.48
2023-04-29T13:59:31.637Z,8.00
2023-04-29T14:03:58.714Z,7.75
2023-04-29T14:06:25.523Z,8.75
2023-04-29T14:08:52.088Z,8.60
2023-04-29T14:11:19.460Z,7.70
2023-04-29T14:13:46.036Z,8.48
2023-04-29T14:16:12.860Z,7.93
2023-04-29T14:18:39.489Z,7.55
2023-04-29T14:21:06.144Z,7.75
2023-04-29T14:23:32.727Z,7.82
2023-04-29T14:26:16.602Z,6.60
2023-04-29T14:28:45.872Z,6.78
2023-04-29T14:31:13.746Z,6.85
2023-04-29T14:33:40.891Z,6.80
2023-04-29T14:36:07.943Z,7.45
2023-04-29T14:38:34.519Z,7.28
2023-04-29T14:41:01.118Z,6.63
2023-04-29T14:43:28.751Z,6.82
2023-04-29T14:45:55.846Z,6.40
2023-04-29T14:48:22.503Z,7.28
2023-04-29T14:50:49.248Z,7.00
2023-04-29T14:53:16.994Z,7.03
2023-04-29T14:55:43.716Z,7.82
2023-04-29T14:58:10.354Z,7.53
2023-04-29T15:00:37.067Z,7.40
2023-04-29T15:03:05.046Z,6.65
2023-04-29T15:05:31.707Z,6.30
2023-04-29T15:08:00.093Z,5.88
2023-04-29T15:10:27.193Z,6.60
2023-04-29T15:12:54.289Z,6.00
2023-04-29T15:15:21.744Z,6.70
2023-04-29T15:17:48.591Z,6.13
2023-04-29T15:20:15.554Z,6.50
2023-04-29T15:22:42.234Z,6.45
2023-04-29T15:25:12.049Z,5.82
2023-04-29T15:27:41.454Z,6.53
2023-04-29T15:30:08.529Z,6.07
2023-04-29T15:32:35.153Z,5.75
2023-04-29T15:35:03.435Z,6.28
2023-04-29T15:37:30.620Z,5.47
2023-04-29T15:40:01.821Z,6.47
2023-04-29T15:42:28.621Z,6.18
2023-04-29T15:44:55.963Z,6.65
2023-04-29T15:47:22.811Z,6.63
2023-04-29T15:49:51.761Z,6.20
2023-04-29T15:52:18.616Z,6.25
2023-04-29T15:54:45.201Z,6.13
2023-04-29T15:57:11.780Z,6.20
2023-04-29T15:59:38.322Z,7.45
2023-04-29T16:02:10.192Z,5.93
2023-04-29T16:04:37.695Z,6.20
2023-04-29T16:07:05.315Z,6.15
2023-04-29T16:09:35.649Z,5.28
2023-04-29T16:12:02.347Z,6.07
2023-04-29T16:14:30.429Z,5.78
2023-04-29T16:16:57.067Z,5.72
2023-04-29T16:19:23.733Z,6.68
2023-04-29T16:21:50.289Z,5.75
2023-04-29T16:24:16.894Z,6.15
2023-04-29T16:26:43.485Z,6.68
2023-04-29T16:29:12.206Z,5.80
2023-04-29T16:31:39.376Z,5.13
2023-04-29T16:34:06.034Z,5.88
2023-04-29T16:36:32.824Z,6.00
2023-04-29T16:38:59.490Z,6.43
2023-04-29T16:41:26.088Z,5.47
2023-04-29T16:43:53.855Z,6.10
2023-04-29T16:46:20.633Z,6.85
2023-04-29T16:48:48.293Z,5.68
2023-04-29T16:51:14.848Z,5.80
2023-04-29T16:53:41.408Z,5.35
2023-04-29T16:56:08.381Z,5.75
2023-04-29T16:58:34.970Z,5.65
2023-04-29T17:01:01.710Z,6.20
2023-04-29T17:03:29.314Z,5.35
2023-04-29T17:05:56.202Z,5.30
2023-04-29T17:08:23.987Z,5.70
2023-04-29T17:10:53.775Z,5.70
2023-04-29T17:13:20.650Z,5.35
2023-04-29T17:15:47.781Z,5.97
2023-04-29T17:18:14.386Z,5.50
2023-04-29T17:20:41.984Z,6.43
2023-04-29T17:23:08.951Z,6.30
2023-04-29T17:25:37.901Z,7.88
2023-04-29T17:28:06.029Z,6.43
2023-04-29T17:30:35.919Z,5.75
2023-04-29T17:33:05.598Z,5.90
2023-04-29T17:35:35.545Z,6.35
2023-04-29T17:38:02.230Z,5.82
2023-04-29T17:40:28.784Z,5.78
2023-04-29T17:42:55.428Z,6.72
2023-04-29T17:45:24.179Z,6.68
2023-04-29T17:47:51.106Z,7.13
2023-04-29T17:50:17.986Z,7.32
2023-04-29T17:52:44.676Z,8.50
2023-04-29T17:55:16.279Z,9.40
2023-04-29T17:57:45.209Z,8.40
2023-04-29T18:00:12.246Z,9.63
2023-04-29T18:02:39.425Z,10.88
2023-04-29T18:05:08.738Z,11.85
2023-04-29T18:07:35.564Z,12.13
2023-04-29T18:10:02.162Z,10.82
2023-04-29T18:12:28.819Z,11.13
2023-04-29T18:14:55.733Z,11.65
2023-04-29T18:17:22.325Z,10.82
2023-04-29T18:19:51.732Z,10.88
2023-04-29T18:22:18.377Z,9.45
2023-04-29T18:24:46.071Z,9.02
2023-04-29T18:27:12.699Z,8.85
2023-04-29T18:29:39.318Z,7.75
2023-04-29T18:32:08.015Z,8.45
2023-04-29T18:34:34.918Z,7.95
2023-04-29T18:37:03.779Z,7.32
2023-04-29T18:39:30.722Z,6.95
2023-04-29T18:41:57.943Z,6.47
2023-04-29T18:44:26.101Z,6.35
2023-04-29T18:46:52.874Z,6.13
2023-04-29T18:49:19.560Z,6.13
2023-04-29T18:51:46.782Z,6.05
2023-04-29T18:54:18.253Z,6.10
2023-04-29T18:56:49.620Z,5.73
2023-04-29T18:59:19.154Z,6.22
2023-04-29T19:01:47.053Z,5.85
2023-04-29T19:04:14.000Z,6.57
2023-04-29T19:06:41.512Z,6.97
2023-04-29T19:09:08.353Z,7.70
2023-04-29T19:11:34.955Z,7.60
2023-04-29T19:14:01.597Z,7.25
2023-04-29T19:16:28.273Z,7.30
2023-04-29T19:18:54.834Z,6.70
2023-04-29T19:21:21.738Z,6.80
2023-04-29T19:23:48.291Z,6.43
2023-04-29T19:26:14.919Z,6.63
2023-04-29T19:28:41.552Z,6.60
2023-04-29T19:31:08.160Z,6.60
2023-04-29T19:33:35.415Z,6.40
2023-04-29T19:36:04.944Z,6.20
2023-04-29T19:38:31.533Z,7.03
2023-04-29T19:40:58.188Z,6.40
2023-04-29T19:43:24.823Z,6.82
2023-04-29T19:45:51.398Z,6.40
2023-04-29T19:48:19.296Z,6.43
2023-04-29T19:50:46.105Z,6.90
2023-04-29T19:53:12.964Z,7.28
2023-04-29T19:55:39.951Z,6.40
2023-04-29T19:58:07.309Z,6.47
2023-04-29T20:00:34.304Z,6.57
2023-04-29T20:03:03.558Z,6.18
2023-04-29T20:05:32.671Z,5.80
2023-04-29T20:08:01.606Z,5.90
2023-04-29T20:10:29.929Z,5.70
2023-04-29T20:12:56.828Z,6.53
2023-04-29T20:15:31.319Z,5.57
2023-04-29T20:17:58.042Z,4.90
2023-04-29T20:20:26.054Z,5.47
2023-04-29T20:22:59.943Z,6.15
2023-04-29T20:25:28.360Z,6.57
2023-04-29T20:27:54.993Z,6.00
2023-04-29T20:30:21.588Z,6.65
2023-04-29T20:32:48.264Z,7.38
2023-04-29T20:35:15.738Z,6.45
2023-04-29T20:37:42.467Z,6.53
2023-04-29T20:40:09.686Z,7.03
2023-04-29T20:42:36.374Z,7.05
2023-04-29T20:45:03.294Z,6.40
2023-04-29T20:47:30.045Z,5.78
2023-04-29T20:50:00.698Z,5.18
2023-04-29T20:52:28.231Z,4.88
2023-04-29T20:54:54.864Z,5.10
2023-04-29T20:57:21.547Z,4.35
2023-04-29T20:59:48.305Z,5.05
2023-04-29T21:02:15.451Z,4.38
2023-04-29T21:04:42.040Z,6.18
2023-04-29T21:07:08.674Z,4.78
2023-04-29T21:09:35.726Z,4.93
2023-04-29T21:12:05.185Z,4.95
2023-04-29T21:14:32.743Z,5.00
2023-04-29T21:17:01.620Z,5.15
2023-04-29T21:19:28.190Z,5.63
2023-04-29T21:21:54.772Z,5.53
2023-04-29T21:24:21.367Z,6.40
2023-04-29T21:26:50.099Z,6.57
2023-04-29T21:29:16.664Z,6.15
2023-04-29T21:31:43.304Z,6.63
2023-04-29T21:34:09.953Z,7.07
2023-04-29T21:36:36.629Z,7.60
2023-04-29T21:39:06.276Z,6.78
2023-04-29T21:41:45.423Z,6.70
2023-04-29T21:44:15.393Z,6.50
2023-04-29T21:46:42.288Z,6.43
2023-04-29T21:49:12.278Z,6.70
2023-04-29T21:51:38.866Z,5.15
2023-04-29T21:54:08.253Z,5.80
2023-04-29T21:56:35.733Z,5.40
2023-04-29T21:59:02.457Z,5.32
2023-04-29T22:01:47.398Z,5.13
2023-04-29T22:04:16.549Z,4.15
2023-04-29T22:06:43.384Z,5.32
2023-04-29T22:09:10.355Z,5.35
2023-04-29T22:11:39.125Z,4.63
2023-04-29T22:14:05.755Z,4.07
2023-04-29T22:16:34.979Z,4.65
2023-04-29T22:19:03.929Z,4.28
2023-04-29T22:21:33.514Z,4.30
2023-04-29T22:24:02.554Z,4.18
2023-04-29T22:26:29.269Z,3.95
2023-04-29T22:28:56.746Z,4.38
2023-04-29T22:31:23.400Z,4.43
2023-04-29T22:33:50.786Z,4.05
2023-04-29T22:36:17.371Z,4.93
2023-04-29T22:38:43.958Z,3.97
2023-04-29T22:41:11.653Z,3.83
2023-04-29T22:43:38.409Z,4.32
2023-04-29T22:46:05.060Z,4.03
2023-04-29T22:48:31.755Z,3.70
2023-04-29T22:50:59.364Z,3.65
2023-04-29T22:53:26.293Z,3.97
2023-04-29T22:55:54.480Z,3.92
2023-04-29T22:58:24.404Z,3.80
2023-04-29T23:00:53.408Z,3.90
2023-04-29T23:03:20.414Z,4.45
2023-04-29T23:05:47.071Z,4.45
2023-04-29T23:08:13.890Z,4.70
2023-04-29T23:10:40.607Z,4.35
2023-04-29T23:13:07.257Z,4.85
2023-04-29T23:15:33.844Z,3.80
2023-04-29T23:18:00.514Z,4.55
2023-04-29T23:20:27.275Z,4.85
2023-04-29T23:22:53.835Z,4.72
2023-04-29T23:25:20.415Z,5.00
2023-04-29T23:27:48.262Z,4.03
2023-04-29T23:30:14.844Z,4.30
2023-04-29T23:32:43.971Z,4.03
2023-04-29T23:35:13.702Z,4.40
2023-04-29T23:37:40.256Z,4.45
2023-04-29T23:40:07.373Z,4.95
2023-04-29T23:42:38.372Z,5.03
2023-04-29T23:45:06.272Z,5.03
2023-04-29T23:47:32.915Z,5.30
2023-04-29T23:49:59.529Z,4.97
2023-04-29T23:52:26.255Z,5.82
2023-04-29T23:54:52.835Z,5.40
2023-04-29T23:57:19.429Z,5.68
2023-04-29T23:59:46.097Z,6.00
